sensor_id;sensor_type;location;lat;lon;timestamp;P1;durP1;ratioP1;P2;durP2;ratioP2
36497;SDS011;22513;51.222;6.480;2022-12-07T00:01:28;51.55;;;30.40;;
36497;SDS011;22513;51.222;6.480;2022-12-07T00:03:56;55.67;;;32.70;;
36497;SDS011;22513;51.222;6.480;2022-12-07T00:06:28;65.93;;;34.58;;
36497;SDS011;22513;51.222;6.480;2022-12-07T00:08:54;72.70;;;34.60;;
36497;SDS011;22513;51.222;6.480;2022-12-07T00:11:21;66.90;;;35.97;;
36497;SDS011;22513;51.222;6.480;2022-12-07T00:13:51;57.75;;;33.67;;
36497;SDS011;22513;51.222;6.480;2022-12-07T00:16:18;54.53;;;32.15;;
36497;SDS011;22513;51.222;6.480;2022-12-07T00:18:45;58.55;;;33.72;;
36497;SDS011;22513;51.222;6.480;2022-12-07T00:21:15;58.17;;;29.58;;
36497;SDS011;22513;51.222;6.480;2022-12-07T00:23:45;50.13;;;30.45;;
36497;SDS011;22513;51.222;6.480;2022-12-07T00:26:13;50.25;;;30.88;;
36497;SDS011;22513;51.222;6.480;2022-12-07T00:28:50;47.65;;;27.90;;
36497;SDS011;22513;51.222;6.480;2022-12-07T00:31:19;52.15;;;30.50;;
36497;SDS011;22513;51.222;6.480;2022-12-07T00:33:46;57.35;;;33.72;;
36497;SDS011;22513;51.222;6.480;2022-12-07T00:36:13;50.25;;;30.63;;
36497;SDS011;22513;51.222;6.480;2022-12-07T00:38:40;41.47;;;27.98;;
36497;SDS011;22513;51.222;6.480;2022-12-07T00:41:07;52.22;;;34.25;;
36497;SDS011;22513;51.222;6.480;2022-12-07T00:43:39;54.90;;;32.63;;
36497;SDS011;22513;51.222;6.480;2022-12-07T00:46:05;54.45;;;33.55;;
36497;SDS011;22513;51.222;6.480;2022-12-07T00:48:31;57.65;;;33.35;;
36497;SDS011;22513;51.222;6.480;2022-12-07T00:50:56;51.33;;;28.38;;
36497;SDS011;22513;51.222;6.480;2022-12-07T00:53:22;61.10;;;33.67;;
36497;SDS011;22513;51.222;6.480;2022-12-07T00:55:48;51.00;;;34.30;;
36497;SDS011;22513;51.222;6.480;2022-12-07T00:58:14;57.83;;;33.47;;
36497;SDS011;22513;51.222;6.480;2022-12-07T01:00:40;62.22;;;35.55;;
36497;SDS011;22513;51.222;6.480;2022-12-07T01:03:07;55.30;;;33.97;;
36497;SDS011;22513;51.222;6.480;2022-12-07T01:05:34;50.65;;;31.15;;
36497;SDS011;22513;51.222;6.480;2022-12-07T01:07:59;53.30;;;31.00;;
36497;SDS011;22513;51.222;6.480;2022-12-07T01:10:25;60.25;;;35.80;;
36497;SDS011;22513;51.222;6.480;2022-12-07T01:12:51;59.50;;;34.17;;
36497;SDS011;22513;51.222;6.480;2022-12-07T01:15:17;56.53;;;34.22;;
36497;SDS011;22513;51.222;6.480;2022-12-07T01:17:43;60.08;;;34.83;;
36497;SDS011;22513;51.222;6.480;2022-12-07T01:20:08;57.17;;;35.10;;
36497;SDS011;22513;51.222;6.480;2022-12-07T01:22:38;57.10;;;31.88;;
36497;SDS011;22513;51.222;6.480;2022-12-07T01:25:05;59.30;;;34.78;;
36497;SDS011;22513;51.222;6.480;2022-12-07T01:27:32;57.28;;;34.00;;
36497;SDS011;22513;51.222;6.480;2022-12-07T01:29:58;54.30;;;34.15;;
36497;SDS011;22513;51.222;6.480;2022-12-07T01:32:24;58.15;;;32.40;;
36497;SDS011;22513;51.222;6.480;2022-12-07T01:34:50;58.53;;;32.38;;
36497;SDS011;22513;51.222;6.480;2022-12-07T01:37:16;55.13;;;33.30;;
36497;SDS011;22513;51.222;6.480;2022-12-07T01:39:41;61.92;;;34.20;;
36497;SDS011;22513;51.222;6.480;2022-12-07T01:42:09;57.80;;;35.42;;
36497;SDS011;22513;51.222;6.480;2022-12-07T01:47:39;58.72;;;35.22;;
36497;SDS011;22513;51.222;6.480;2022-12-07T01:50:05;62.78;;;37.58;;
36497;SDS011;22513;51.222;6.480;2022-12-07T01:52:31;59.28;;;37.58;;
36497;SDS011;22513;51.222;6.480;2022-12-07T01:55:01;61.97;;;36.50;;
36497;SDS011;22513;51.222;6.480;2022-12-07T01:57:35;64.47;;;33.53;;
36497;SDS011;22513;51.222;6.480;2022-12-07T02:00:05;59.17;;;34.70;;
36497;SDS011;22513;51.222;6.480;2022-12-07T02:02:36;59.85;;;33.40;;
36497;SDS011;22513;51.222;6.480;2022-12-07T02:05:06;62.33;;;34.80;;
36497;SDS011;22513;51.222;6.480;2022-12-07T02:07:34;62.92;;;34.63;;
36497;SDS011;22513;51.222;6.480;2022-12-07T02:12:43;53.13;;;31.83;;
36497;SDS011;22513;51.222;6.480;2022-12-07T02:15:12;55.10;;;32.17;;
36497;SDS011;22513;51.222;6.480;2022-12-07T02:20:29;61.50;;;36.20;;
36497;SDS011;22513;51.222;6.480;2022-12-07T02:23:03;58.88;;;36.40;;
36497;SDS011;22513;51.222;6.480;2022-12-07T02:28:27;66.38;;;37.67;;
36497;SDS011;22513;51.222;6.480;2022-12-07T02:30:58;59.75;;;36.85;;
36497;SDS011;22513;51.222;6.480;2022-12-07T02:33:35;54.42;;;31.13;;
36497;SDS011;22513;51.222;6.480;2022-12-07T02:36:12;61.72;;;35.33;;
36497;SDS011;22513;51.222;6.480;2022-12-07T02:38:51;67.97;;;39.10;;
36497;SDS011;22513;51.222;6.480;2022-12-07T02:41:26;64.03;;;36.70;;
36497;SDS011;22513;51.222;6.480;2022-12-07T02:44:03;62.47;;;35.45;;
36497;SDS011;22513;51.222;6.480;2022-12-07T02:46:42;68.15;;;38.50;;
36497;SDS011;22513;51.222;6.480;2022-12-07T02:49:11;68.32;;;38.72;;
36497;SDS011;22513;51.222;6.480;2022-12-07T02:51:39;58.28;;;32.33;;
36497;SDS011;22513;51.222;6.480;2022-12-07T02:54:16;64.55;;;37.13;;
36497;SDS011;22513;51.222;6.480;2022-12-07T02:59:24;55.90;;;33.28;;
36497;SDS011;22513;51.222;6.480;2022-12-07T03:10:34;53.90;;;30.63;;
36497;SDS011;22513;51.222;6.480;2022-12-07T03:18:53;61.75;;;33.28;;
36497;SDS011;22513;51.222;6.480;2022-12-07T03:21:32;59.97;;;36.20;;
36497;SDS011;22513;51.222;6.480;2022-12-07T03:24:17;59.78;;;33.28;;
36497;SDS011;22513;51.222;6.480;2022-12-07T03:26:48;64.20;;;37.20;;
36497;SDS011;22513;51.222;6.480;2022-12-07T03:29:25;64.90;;;35.55;;
36497;SDS011;22513;51.222;6.480;2022-12-07T03:31:58;41.90;;;25.55;;
36497;SDS011;22513;51.222;6.480;2022-12-07T03:34:29;58.28;;;33.95;;
36497;SDS011;22513;51.222;6.480;2022-12-07T03:37:04;70.72;;;34.97;;
36497;SDS011;22513;51.222;6.480;2022-12-07T03:39:34;53.80;;;33.13;;
36497;SDS011;22513;51.222;6.480;2022-12-07T03:42:13;57.63;;;33.17;;
36497;SDS011;22513;51.222;6.480;2022-12-07T03:44:38;54.10;;;31.13;;
36497;SDS011;22513;51.222;6.480;2022-12-07T03:47:06;55.45;;;33.45;;
36497;SDS011;22513;51.222;6.480;2022-12-07T03:49:48;62.95;;;33.63;;
36497;SDS011;22513;51.222;6.480;2022-12-07T03:52:33;50.13;;;32.40;;
36497;SDS011;22513;51.222;6.480;2022-12-07T03:55:17;64.78;;;34.17;;
36497;SDS011;22513;51.222;6.480;2022-12-07T03:57:48;52.35;;;26.65;;
36497;SDS011;22513;51.222;6.480;2022-12-07T04:00:17;66.20;;;35.40;;
36497;SDS011;22513;51.222;6.480;2022-12-07T04:02:43;65.78;;;34.83;;
36497;SDS011;22513;51.222;6.480;2022-12-07T04:05:09;67.53;;;36.20;;
36497;SDS011;22513;51.222;6.480;2022-12-07T04:07:35;67.32;;;37.55;;
36497;SDS011;22513;51.222;6.480;2022-12-07T04:10:01;73.07;;;37.30;;
36497;SDS011;22513;51.222;6.480;2022-12-07T04:12:26;70.63;;;36.83;;
36497;SDS011;22513;51.222;6.480;2022-12-07T04:14:52;79.13;;;39.70;;
36497;SDS011;22513;51.222;6.480;2022-12-07T04:17:18;65.57;;;38.22;;
36497;SDS011;22513;51.222;6.480;2022-12-07T04:19:43;76.13;;;39.47;;
36497;SDS011;22513;51.222;6.480;2022-12-07T04:22:09;65.88;;;34.60;;
36497;SDS011;22513;51.222;6.480;2022-12-07T04:24:34;72.57;;;40.13;;
36497;SDS011;22513;51.222;6.480;2022-12-07T04:27:00;73.30;;;40.58;;
36497;SDS011;22513;51.222;6.480;2022-12-07T04:29:26;71.95;;;37.55;;
36497;SDS011;22513;51.222;6.480;2022-12-07T04:31:52;73.57;;;39.47;;
36497;SDS011;22513;51.222;6.480;2022-12-07T04:34:18;73.30;;;40.38;;
36497;SDS011;22513;51.222;6.480;2022-12-07T04:36:45;64.07;;;35.95;;
36497;SDS011;22513;51.222;6.480;2022-12-07T04:39:19;70.80;;;37.08;;
36497;SDS011;22513;51.222;6.480;2022-12-07T04:41:55;62.65;;;33.15;;
36497;SDS011;22513;51.222;6.480;2022-12-07T04:44:22;55.83;;;32.80;;
36497;SDS011;22513;51.222;6.480;2022-12-07T04:46:48;63.75;;;34.65;;
36497;SDS011;22513;51.222;6.480;2022-12-07T04:49:15;56.25;;;31.05;;
36497;SDS011;22513;51.222;6.480;2022-12-07T04:51:41;65.65;;;35.92;;
36497;SDS011;22513;51.222;6.480;2022-12-07T04:54:07;59.67;;;33.35;;
36497;SDS011;22513;51.222;6.480;2022-12-07T04:56:33;56.00;;;29.98;;
36497;SDS011;22513;51.222;6.480;2022-12-07T04:59:02;62.13;;;30.70;;
36497;SDS011;22513;51.222;6.480;2022-12-07T05:01:28;52.50;;;30.25;;
36497;SDS011;22513;51.222;6.480;2022-12-07T05:03:54;52.70;;;26.73;;
36497;SDS011;22513;51.222;6.480;2022-12-07T05:06:20;54.65;;;27.83;;
36497;SDS011;22513;51.222;6.480;2022-12-07T05:08:45;55.35;;;31.77;;
36497;SDS011;22513;51.222;6.480;2022-12-07T05:11:12;61.13;;;31.60;;
36497;SDS011;22513;51.222;6.480;2022-12-07T05:13:57;57.05;;;31.00;;
36497;SDS011;22513;51.222;6.480;2022-12-07T05:16:23;49.75;;;26.40;;
36497;SDS011;22513;51.222;6.480;2022-12-07T05:18:49;60.42;;;31.80;;
36497;SDS011;22513;51.222;6.480;2022-12-07T05:21:14;52.70;;;29.58;;
36497;SDS011;22513;51.222;6.480;2022-12-07T05:23:40;59.75;;;34.63;;
36497;SDS011;22513;51.222;6.480;2022-12-07T05:26:05;62.25;;;34.80;;
36497;SDS011;22513;51.222;6.480;2022-12-07T05:28:31;55.38;;;33.10;;
36497;SDS011;22513;51.222;6.480;2022-12-07T05:30:57;51.30;;;33.72;;
36497;SDS011;22513;51.222;6.480;2022-12-07T05:33:22;55.28;;;34.20;;
36497;SDS011;22513;51.222;6.480;2022-12-07T05:35:48;60.60;;;33.92;;
36497;SDS011;22513;51.222;6.480;2022-12-07T05:38:13;60.00;;;32.65;;
36497;SDS011;22513;51.222;6.480;2022-12-07T05:40:39;57.30;;;31.50;;
36497;SDS011;22513;51.222;6.480;2022-12-07T05:43:04;64.10;;;33.55;;
36497;SDS011;22513;51.222;6.480;2022-12-07T05:45:30;56.95;;;31.30;;
36497;SDS011;22513;51.222;6.480;2022-12-07T05:47:56;69.22;;;35.33;;
36497;SDS011;22513;51.222;6.480;2022-12-07T05:50:21;65.05;;;35.15;;
36497;SDS011;22513;51.222;6.480;2022-12-07T05:52:47;64.63;;;33.75;;
36497;SDS011;22513;51.222;6.480;2022-12-07T05:55:13;62.83;;;33.83;;
36497;SDS011;22513;51.222;6.480;2022-12-07T05:57:38;61.47;;;33.58;;
36497;SDS011;22513;51.222;6.480;2022-12-07T06:00:04;65.28;;;34.72;;
36497;SDS011;22513;51.222;6.480;2022-12-07T06:02:30;63.83;;;33.70;;
36497;SDS011;22513;51.222;6.480;2022-12-07T06:04:56;62.55;;;34.33;;
36497;SDS011;22513;51.222;6.480;2022-12-07T06:07:22;58.30;;;33.70;;
36497;SDS011;22513;51.222;6.480;2022-12-07T06:09:47;59.45;;;33.30;;
36497;SDS011;22513;51.222;6.480;2022-12-07T06:12:13;60.90;;;30.90;;
36497;SDS011;22513;51.222;6.480;2022-12-07T06:14:57;48.50;;;26.80;;
36497;SDS011;22513;51.222;6.480;2022-12-07T06:17:23;62.58;;;31.58;;
36497;SDS011;22513;51.222;6.480;2022-12-07T06:19:49;56.33;;;29.45;;
36497;SDS011;22513;51.222;6.480;2022-12-07T06:22:15;52.08;;;28.90;;
36497;SDS011;22513;51.222;6.480;2022-12-07T06:24:41;54.35;;;29.17;;
36497;SDS011;22513;51.222;6.480;2022-12-07T06:27:07;52.83;;;29.77;;
36497;SDS011;22513;51.222;6.480;2022-12-07T06:29:33;53.80;;;28.15;;
36497;SDS011;22513;51.222;6.480;2022-12-07T06:31:58;53.78;;;28.38;;
36497;SDS011;22513;51.222;6.480;2022-12-07T06:34:25;48.90;;;24.77;;
36497;SDS011;22513;51.222;6.480;2022-12-07T06:36:51;51.28;;;28.00;;
36497;SDS011;22513;51.222;6.480;2022-12-07T06:39:20;48.13;;;28.65;;
36497;SDS011;22513;51.222;6.480;2022-12-07T06:41:47;45.42;;;26.23;;
36497;SDS011;22513;51.222;6.480;2022-12-07T06:44:13;46.25;;;26.40;;
36497;SDS011;22513;51.222;6.480;2022-12-07T06:46:39;46.45;;;26.98;;
36497;SDS011;22513;51.222;6.480;2022-12-07T06:49:08;42.15;;;25.92;;
36497;SDS011;22513;51.222;6.480;2022-12-07T06:51:34;47.23;;;24.70;;
36497;SDS011;22513;51.222;6.480;2022-12-07T06:54:06;47.97;;;26.23;;
36497;SDS011;22513;51.222;6.480;2022-12-07T06:56:32;40.95;;;24.02;;
36497;SDS011;22513;51.222;6.480;2022-12-07T06:58:58;41.38;;;23.20;;
36497;SDS011;22513;51.222;6.480;2022-12-07T07:01:24;41.92;;;22.33;;
36497;SDS011;22513;51.222;6.480;2022-12-07T07:03:49;48.47;;;23.20;;
36497;SDS011;22513;51.222;6.480;2022-12-07T07:06:15;45.65;;;22.60;;
36497;SDS011;22513;51.222;6.480;2022-12-07T07:08:41;45.67;;;22.48;;
36497;SDS011;22513;51.222;6.480;2022-12-07T07:11:06;50.13;;;23.70;;
36497;SDS011;22513;51.222;6.480;2022-12-07T07:13:33;42.17;;;22.20;;
36497;SDS011;22513;51.222;6.480;2022-12-07T07:15:59;48.97;;;22.98;;
36497;SDS011;22513;51.222;6.480;2022-12-07T07:18:25;36.15;;;19.48;;
36497;SDS011;22513;51.222;6.480;2022-12-07T07:20:52;41.95;;;23.85;;
36497;SDS011;22513;51.222;6.480;2022-12-07T07:23:18;47.35;;;22.80;;
36497;SDS011;22513;51.222;6.480;2022-12-07T07:25:45;46.88;;;24.48;;
36497;SDS011;22513;51.222;6.480;2022-12-07T07:28:11;50.28;;;28.85;;
36497;SDS011;22513;51.222;6.480;2022-12-07T07:30:36;44.20;;;23.33;;
36497;SDS011;22513;51.222;6.480;2022-12-07T07:33:02;47.35;;;23.73;;
36497;SDS011;22513;51.222;6.480;2022-12-07T07:35:30;44.28;;;23.13;;
36497;SDS011;22513;51.222;6.480;2022-12-07T07:37:57;39.47;;;21.92;;
36497;SDS011;22513;51.222;6.480;2022-12-07T07:40:23;43.40;;;22.45;;
36497;SDS011;22513;51.222;6.480;2022-12-07T07:42:50;49.20;;;24.63;;
36497;SDS011;22513;51.222;6.480;2022-12-07T07:45:17;50.63;;;24.42;;
36497;SDS011;22513;51.222;6.480;2022-12-07T07:47:44;45.65;;;23.17;;
36497;SDS011;22513;51.222;6.480;2022-12-07T07:50:11;46.35;;;25.73;;
36497;SDS011;22513;51.222;6.480;2022-12-07T07:52:37;52.00;;;27.58;;
36497;SDS011;22513;51.222;6.480;2022-12-07T07:55:02;50.50;;;26.05;;
36497;SDS011;22513;51.222;6.480;2022-12-07T07:57:28;53.78;;;27.75;;
36497;SDS011;22513;51.222;6.480;2022-12-07T07:59:54;53.90;;;27.48;;
36497;SDS011;22513;51.222;6.480;2022-12-07T08:02:20;54.17;;;30.27;;
36497;SDS011;22513;51.222;6.480;2022-12-07T08:04:47;49.67;;;28.08;;
36497;SDS011;22513;51.222;6.480;2022-12-07T08:07:12;54.67;;;28.63;;
36497;SDS011;22513;51.222;6.480;2022-12-07T08:09:39;63.33;;;31.83;;
36497;SDS011;22513;51.222;6.480;2022-12-07T08:12:05;49.53;;;30.08;;
36497;SDS011;22513;51.222;6.480;2022-12-07T08:14:31;61.88;;;31.08;;
36497;SDS011;22513;51.222;6.480;2022-12-07T08:16:57;60.42;;;33.60;;
36497;SDS011;22513;51.222;6.480;2022-12-07T08:19:23;60.80;;;31.48;;
36497;SDS011;22513;51.222;6.480;2022-12-07T08:21:48;64.85;;;34.50;;
36497;SDS011;22513;51.222;6.480;2022-12-07T08:24:14;56.10;;;28.80;;
36497;SDS011;22513;51.222;6.480;2022-12-07T08:26:40;49.60;;;28.35;;
36497;SDS011;22513;51.222;6.480;2022-12-07T08:29:06;51.45;;;26.42;;
36497;SDS011;22513;51.222;6.480;2022-12-07T08:31:32;50.55;;;29.00;;
36497;SDS011;22513;51.222;6.480;2022-12-07T08:33:57;48.63;;;27.48;;
36497;SDS011;22513;51.222;6.480;2022-12-07T08:36:23;43.25;;;24.48;;
36497;SDS011;22513;51.222;6.480;2022-12-07T08:38:49;45.90;;;25.38;;
36497;SDS011;22513;51.222;6.480;2022-12-07T08:41:15;42.67;;;24.52;;
36497;SDS011;22513;51.222;6.480;2022-12-07T08:43:41;42.17;;;23.63;;
36497;SDS011;22513;51.222;6.480;2022-12-07T08:46:19;39.53;;;24.30;;
36497;SDS011;22513;51.222;6.480;2022-12-07T08:48:49;35.40;;;20.90;;
36497;SDS011;22513;51.222;6.480;2022-12-07T08:51:24;38.03;;;19.90;;
36497;SDS011;22513;51.222;6.480;2022-12-07T08:53:50;32.90;;;21.75;;
36497;SDS011;22513;51.222;6.480;2022-12-07T08:56:17;41.83;;;21.90;;
36497;SDS011;22513;51.222;6.480;2022-12-07T08:58:43;39.22;;;24.05;;
36497;SDS011;22513;51.222;6.480;2022-12-07T09:01:09;31.27;;;19.15;;
36497;SDS011;22513;51.222;6.480;2022-12-07T09:03:35;29.83;;;18.00;;
36497;SDS011;22513;51.222;6.480;2022-12-07T09:06:01;34.08;;;17.50;;
36497;SDS011;22513;51.222;6.480;2022-12-07T09:08:29;35.65;;;19.33;;
36497;SDS011;22513;51.222;6.480;2022-12-07T09:10:59;25.08;;;16.70;;
36497;SDS011;22513;51.222;6.480;2022-12-07T09:13:25;30.35;;;18.98;;
36497;SDS011;22513;51.222;6.480;2022-12-07T09:15:51;25.70;;;17.88;;
36497;SDS011;22513;51.222;6.480;2022-12-07T09:18:16;27.48;;;17.48;;
36497;SDS011;22513;51.222;6.480;2022-12-07T09:20:42;29.55;;;16.90;;
36497;SDS011;22513;51.222;6.480;2022-12-07T09:23:08;27.27;;;16.08;;
36497;SDS011;22513;51.222;6.480;2022-12-07T09:25:34;28.30;;;17.55;;
36497;SDS011;22513;51.222;6.480;2022-12-07T09:28:00;27.90;;;16.30;;
36497;SDS011;22513;51.222;6.480;2022-12-07T09:30:26;25.63;;;16.40;;
36497;SDS011;22513;51.222;6.480;2022-12-07T09:32:53;24.98;;;16.02;;
36497;SDS011;22513;51.222;6.480;2022-12-07T09:35:19;25.38;;;16.58;;
36497;SDS011;22513;51.222;6.480;2022-12-07T09:37:45;23.80;;;16.02;;
36497;SDS011;22513;51.222;6.480;2022-12-07T09:40:11;24.67;;;14.35;;
36497;SDS011;22513;51.222;6.480;2022-12-07T09:42:39;24.40;;;14.50;;
36497;SDS011;22513;51.222;6.480;2022-12-07T09:45:14;22.55;;;14.10;;
36497;SDS011;22513;51.222;6.480;2022-12-07T09:47:46;19.25;;;13.25;;
36497;SDS011;22513;51.222;6.480;2022-12-07T09:50:13;19.25;;;12.93;;
36497;SDS011;22513;51.222;6.480;2022-12-07T09:52:45;21.85;;;11.38;;
36497;SDS011;22513;51.222;6.480;2022-12-07T09:55:15;17.38;;;11.32;;
36497;SDS011;22513;51.222;6.480;2022-12-07T09:57:43;16.13;;;10.90;;
36497;SDS011;22513;51.222;6.480;2022-12-07T10:00:13;17.60;;;10.60;;
36497;SDS011;22513;51.222;6.480;2022-12-07T10:02:46;14.93;;;11.05;;
36497;SDS011;22513;51.222;6.480;2022-12-07T10:05:15;18.77;;;9.95;;
36497;SDS011;22513;51.222;6.480;2022-12-07T10:07:44;19.35;;;9.15;;
36497;SDS011;22513;51.222;6.480;2022-12-07T10:10:22;20.65;;;9.93;;
36497;SDS011;22513;51.222;6.480;2022-12-07T10:12:54;15.50;;;8.35;;
36497;SDS011;22513;51.222;6.480;2022-12-07T10:15:23;18.88;;;9.50;;
36497;SDS011;22513;51.222;6.480;2022-12-07T10:18:13;18.52;;;9.30;;
36497;SDS011;22513;51.222;6.480;2022-12-07T10:20:59;11.05;;;7.88;;
36497;SDS011;22513;51.222;6.480;2022-12-07T10:23:41;12.85;;;6.57;;
36497;SDS011;22513;51.222;6.480;2022-12-07T10:26:29;14.48;;;7.82;;
36497;SDS011;22513;51.222;6.480;2022-12-07T10:29:30;13.07;;;8.02;;
36497;SDS011;22513;51.222;6.480;2022-12-07T10:32:00;13.00;;;7.18;;
36497;SDS011;22513;51.222;6.480;2022-12-07T10:34:36;17.98;;;9.25;;
36497;SDS011;22513;51.222;6.480;2022-12-07T10:39:41;13.30;;;8.48;;
36497;SDS011;22513;51.222;6.480;2022-12-07T10:42:20;16.98;;;9.95;;
36497;SDS011;22513;51.222;6.480;2022-12-07T10:44:48;14.35;;;9.50;;
36497;SDS011;22513;51.222;6.480;2022-12-07T10:49:48;22.88;;;12.20;;
36497;SDS011;22513;51.222;6.480;2022-12-07T11:03:24;18.63;;;10.95;;
36497;SDS011;22513;51.222;6.480;2022-12-07T11:11:38;17.58;;;12.18;;
36497;SDS011;22513;51.222;6.480;2022-12-07T11:26:06;25.42;;;11.05;;
36497;SDS011;22513;51.222;6.480;2022-12-07T11:30:57;15.32;;;10.80;;
36497;SDS011;22513;51.222;6.480;2022-12-07T11:38:49;14.65;;;9.57;;
36497;SDS011;22513;51.222;6.480;2022-12-07T11:41:22;14.43;;;9.40;;
36497;SDS011;22513;51.222;6.480;2022-12-07T11:46:18;13.32;;;8.30;;
36497;SDS011;22513;51.222;6.480;2022-12-07T11:48:50;15.88;;;6.80;;
36497;SDS011;22513;51.222;6.480;2022-12-07T11:51:20;14.00;;;8.40;;
36497;SDS011;22513;51.222;6.480;2022-12-07T11:56:27;20.13;;;7.40;;
36497;SDS011;22513;51.222;6.480;2022-12-07T11:58:54;13.45;;;6.55;;
36497;SDS011;22513;51.222;6.480;2022-12-07T12:06:36;13.75;;;7.13;;
36497;SDS011;22513;51.222;6.480;2022-12-07T12:09:13;10.43;;;5.75;;
36497;SDS011;22513;51.222;6.480;2022-12-07T12:23:24;11.23;;;7.03;;
36497;SDS011;22513;51.222;6.480;2022-12-07T12:26:03;11.32;;;5.10;;
36497;SDS011;22513;51.222;6.480;2022-12-07T12:28:40;11.70;;;5.78;;
36497;SDS011;22513;51.222;6.480;2022-12-07T12:31:16;10.68;;;5.20;;
36497;SDS011;22513;51.222;6.480;2022-12-07T12:33:57;10.00;;;4.30;;
36497;SDS011;22513;51.222;6.480;2022-12-07T12:36:46;11.52;;;5.35;;
36497;SDS011;22513;51.222;6.480;2022-12-07T12:47:04;11.75;;;5.70;;
36497;SDS011;22513;51.222;6.480;2022-12-07T12:57:35;11.25;;;5.90;;
36497;SDS011;22513;51.222;6.480;2022-12-07T13:00:23;10.75;;;5.40;;
36497;SDS011;22513;51.222;6.480;2022-12-07T13:02:55;10.02;;;6.13;;
36497;SDS011;22513;51.222;6.480;2022-12-07T13:05:30;16.13;;;5.72;;
36497;SDS011;22513;51.222;6.480;2022-12-07T13:08:00;8.95;;;4.35;;
36497;SDS011;22513;51.222;6.480;2022-12-07T13:10:40;8.75;;;4.75;;
36497;SDS011;22513;51.222;6.480;2022-12-07T13:15:37;7.05;;;4.32;;
36497;SDS011;22513;51.222;6.480;2022-12-07T13:28:51;12.68;;;6.07;;
36497;SDS011;22513;51.222;6.480;2022-12-07T13:31:47;9.45;;;4.90;;
36497;SDS011;22513;51.222;6.480;2022-12-07T13:37:34;9.40;;;4.60;;
36497;SDS011;22513;51.222;6.480;2022-12-07T13:40:00;9.48;;;4.38;;
36497;SDS011;22513;51.222;6.480;2022-12-07T13:42:43;9.00;;;3.95;;
36497;SDS011;22513;51.222;6.480;2022-12-07T13:51:02;9.70;;;3.67;;
36497;SDS011;22513;51.222;6.480;2022-12-07T13:53:29;9.52;;;3.42;;
36497;SDS011;22513;51.222;6.480;2022-12-07T13:55:58;7.65;;;2.90;;
36497;SDS011;22513;51.222;6.480;2022-12-07T13:58:25;8.77;;;3.65;;
36497;SDS011;22513;51.222;6.480;2022-12-07T14:00:54;8.75;;;3.47;;
36497;SDS011;22513;51.222;6.480;2022-12-07T14:03:23;12.73;;;4.97;;
36497;SDS011;22513;51.222;6.480;2022-12-07T14:06:07;8.65;;;4.13;;
36497;SDS011;22513;51.222;6.480;2022-12-07T14:08:35;11.57;;;3.97;;
36497;SDS011;22513;51.222;6.480;2022-12-07T14:11:01;9.82;;;3.20;;
36497;SDS011;22513;51.222;6.480;2022-12-07T14:15:55;10.05;;;3.97;;
36497;SDS011;22513;51.222;6.480;2022-12-07T14:18:36;10.38;;;4.15;;
36497;SDS011;22513;51.222;6.480;2022-12-07T14:21:03;9.15;;;3.85;;
36497;SDS011;22513;51.222;6.480;2022-12-07T14:23:34;13.23;;;4.15;;
36497;SDS011;22513;51.222;6.480;2022-12-07T14:26:07;10.65;;;3.65;;
36497;SDS011;22513;51.222;6.480;2022-12-07T14:28:38;8.10;;;4.03;;
36497;SDS011;22513;51.222;6.480;2022-12-07T14:31:20;8.05;;;3.45;;
36497;SDS011;22513;51.222;6.480;2022-12-07T14:33:48;7.00;;;3.70;;
36497;SDS011;22513;51.222;6.480;2022-12-07T14:36:14;11.73;;;4.07;;
36497;SDS011;22513;51.222;6.480;2022-12-07T14:38:40;9.80;;;3.33;;
36497;SDS011;22513;51.222;6.480;2022-12-07T14:41:06;13.93;;;4.30;;
36497;SDS011;22513;51.222;6.480;2022-12-07T14:43:57;14.25;;;3.78;;
36497;SDS011;22513;51.222;6.480;2022-12-07T14:46:23;12.40;;;3.78;;
36497;SDS011;22513;51.222;6.480;2022-12-07T14:48:48;8.18;;;3.88;;
36497;SDS011;22513;51.222;6.480;2022-12-07T14:51:14;13.68;;;4.15;;
36497;SDS011;22513;51.222;6.480;2022-12-07T14:53:41;9.07;;;4.18;;
36497;SDS011;22513;51.222;6.480;2022-12-07T14:56:11;15.85;;;4.93;;
36497;SDS011;22513;51.222;6.480;2022-12-07T14:58:37;12.73;;;5.53;;
36497;SDS011;22513;51.222;6.480;2022-12-07T15:01:05;9.73;;;5.03;;
36497;SDS011;22513;51.222;6.480;2022-12-07T15:03:31;10.10;;;5.47;;
36497;SDS011;22513;51.222;6.480;2022-12-07T15:05:57;13.13;;;5.45;;
36497;SDS011;22513;51.222;6.480;2022-12-07T15:08:23;10.88;;;5.65;;
36497;SDS011;22513;51.222;6.480;2022-12-07T15:10:48;9.88;;;5.45;;
36497;SDS011;22513;51.222;6.480;2022-12-07T15:13:14;16.50;;;6.35;;
36497;SDS011;22513;51.222;6.480;2022-12-07T15:15:58;17.75;;;6.15;;
36497;SDS011;22513;51.222;6.480;2022-12-07T15:18:25;15.93;;;6.35;;
36497;SDS011;22513;51.222;6.480;2022-12-07T15:20:50;11.68;;;5.28;;
36497;SDS011;22513;51.222;6.480;2022-12-07T15:23:16;7.45;;;4.90;;
36497;SDS011;22513;51.222;6.480;2022-12-07T15:25:46;10.93;;;6.38;;
36497;SDS011;22513;51.222;6.480;2022-12-07T15:28:13;12.10;;;5.72;;
36497;SDS011;22513;51.222;6.480;2022-12-07T15:30:40;11.70;;;5.93;;
36497;SDS011;22513;51.222;6.480;2022-12-07T15:33:07;16.77;;;5.88;;
36497;SDS011;22513;51.222;6.480;2022-12-07T15:35:33;12.75;;;6.57;;
36497;SDS011;22513;51.222;6.480;2022-12-07T15:38:02;11.40;;;6.55;;
36497;SDS011;22513;51.222;6.480;2022-12-07T15:40:28;16.67;;;7.25;;
36497;SDS011;22513;51.222;6.480;2022-12-07T15:42:54;16.52;;;5.97;;
36497;SDS011;22513;51.222;6.480;2022-12-07T15:45:19;18.40;;;5.95;;
36497;SDS011;22513;51.222;6.480;2022-12-07T15:47:45;12.18;;;7.22;;
36497;SDS011;22513;51.222;6.480;2022-12-07T15:50:12;13.18;;;6.32;;
36497;SDS011;22513;51.222;6.480;2022-12-07T15:52:39;9.90;;;6.83;;
36497;SDS011;22513;51.222;6.480;2022-12-07T15:55:05;13.27;;;6.32;;
36497;SDS011;22513;51.222;6.480;2022-12-07T15:57:32;12.50;;;6.57;;
36497;SDS011;22513;51.222;6.480;2022-12-07T15:59:59;9.10;;;5.97;;
36497;SDS011;22513;51.222;6.480;2022-12-07T16:02:25;13.85;;;6.80;;
36497;SDS011;22513;51.222;6.480;2022-12-07T16:04:51;11.55;;;7.05;;
36497;SDS011;22513;51.222;6.480;2022-12-07T16:07:17;11.68;;;7.20;;
36497;SDS011;22513;51.222;6.480;2022-12-07T16:09:43;14.10;;;7.45;;
36497;SDS011;22513;51.222;6.480;2022-12-07T16:12:10;9.98;;;6.43;;
36497;SDS011;22513;51.222;6.480;2022-12-07T16:14:37;14.00;;;7.63;;
36497;SDS011;22513;51.222;6.480;2022-12-07T16:17:03;14.30;;;8.57;;
36497;SDS011;22513;51.222;6.480;2022-12-07T16:19:29;14.65;;;7.57;;
36497;SDS011;22513;51.222;6.480;2022-12-07T16:21:56;11.65;;;7.82;;
36497;SDS011;22513;51.222;6.480;2022-12-07T16:24:22;16.27;;;8.70;;
36497;SDS011;22513;51.222;6.480;2022-12-07T16:26:47;13.55;;;8.30;;
36497;SDS011;22513;51.222;6.480;2022-12-07T16:29:14;15.32;;;7.40;;
36497;SDS011;22513;51.222;6.480;2022-12-07T16:31:40;20.23;;;8.85;;
36497;SDS011;22513;51.222;6.480;2022-12-07T16:34:06;15.55;;;8.50;;
36497;SDS011;22513;51.222;6.480;2022-12-07T16:36:32;15.98;;;9.07;;
36497;SDS011;22513;51.222;6.480;2022-12-07T16:38:58;16.42;;;9.10;;
36497;SDS011;22513;51.222;6.480;2022-12-07T16:41:25;15.70;;;9.25;;
36497;SDS011;22513;51.222;6.480;2022-12-07T16:43:50;15.93;;;9.68;;
36497;SDS011;22513;51.222;6.480;2022-12-07T16:46:16;17.73;;;9.50;;
36497;SDS011;22513;51.222;6.480;2022-12-07T16:48:42;16.15;;;10.27;;